Time;durP1;ratioP1;P1;durP2;ratioP2;P2;SDS_P1;SDS_P2;PMS_P1;PMS_P2;Temp;Humidity;BMP_temperature;BMP_pressure;BME280_temperature;BME280_humidity;BME280_pressure;Samples;Min_cycle;Max_cycle;Signal;HPM_P1;HPM_P2
2021/01/01 00:01:48;;;;;;;27.35;21.13;;;3.80;99.90;;;;;;5132579;27;20576;-49
2021/01/01 00:04:16;;;;;;;28.60;19.60;;;3.80;99.90;;;;;;5121541;27;20187;-54
2021/01/01 00:06:46;;;;;;;28.98;23.67;;;3.80;99.90;;;;;;5113811;28;20186;-49
2021/01/01 00:09:14;;;;;;;34.47;22.45;;;3.70;99.90;;;;;;5114016;28;20523;-51
2021/01/01 00:11:41;;;;;;;22.90;17.95;;;3.70;99.90;;;;;;5113942;28;20570;-50
2021/01/01 00:14:12;;;;;;;25.25;17.98;;;3.70;99.90;;;;;;5112642;28;20579;-54
2021/01/01 00:16:40;;;;;;;24.23;18.20;;;3.80;99.90;;;;;;5112217;28;20173;-46
2021/01/01 00:19:08;;;;;;;36.50;25.83;;;3.80;99.90;;;;;;5112770;28;20171;-44
2021/01/01 00:21:36;;;;;;;32.33;20.60;;;3.70;99.90;;;;;;5112287;28;20236;-47
2021/01/01 00:24:04;;;;;;;25.33;17.27;;;3.70;99.90;;;;;;5112146;28;20175;-43
2021/01/01 00:26:31;;;;;;;36.53;24.77;;;3.70;99.90;;;;;;5111910;28;20196;-49
2021/01/01 00:28:58;;;;;;;23.55;18.45;;;3.80;99.90;;;;;;5111580;28;20244;-53
2021/01/01 00:31:26;;;;;;;36.47;22.10;;;3.80;99.90;;;;;;5111671;28;20278;-51
2021/01/01 00:33:54;;;;;;;25.88;21.20;;;3.80;99.90;;;;;;5093860;28;20265;-48
2021/01/01 00:36:22;;;;;;;37.33;22.63;;;3.80;99.90;;;;;;5112726;28;20593;-53
2021/01/01 00:38:53;;;;;;;30.98;24.33;;;3.80;99.90;;;;;;5111855;28;20206;-49
2021/01/01 00:41:23;;;;;;;44.72;23.77;;;3.80;99.90;;;;;;5093296;28;20668;-47
2021/01/01 00:43:51;;;;;;;45.30;29.98;;;3.80;99.90;;;;;;5111917;28;20222;-50
2021/01/01 00:46:19;;;;;;;49.67;29.77;;;3.70;99.90;;;;;;5092972;28;20195;-49
2021/01/01 00:48:46;;;;;;;35.10;28.30;;;3.70;99.90;;;;;;5110946;28;20182;-47
2021/01/01 00:51:13;;;;;;;57.03;34.88;;;3.80;99.90;;;;;;5110825;28;20221;-52
2021/01/01 00:53:44;;;;;;;62.85;37.40;;;3.70;99.90;;;;;;5110016;28;20194;-52
2021/01/01 00:56:19;;;;;;;57.25;37.88;;;3.80;99.90;;;;;;5110857;28;20186;-53
2021/01/01 00:58:49;;;;;;;70.10;42.40;;;3.80;99.90;;;;;;5110762;28;20293;-52
2021/01/01 01:01:17;;;;;;;54.85;38.58;;;3.80;99.90;;;;;;5110583;28;20229;-50
2021/01/01 01:03:45;;;;;;;61.45;40.97;;;3.80;99.90;;;;;;5110742;28;20191;-46
2021/01/01 01:06:12;;;;;;;61.53;35.85;;;3.80;99.90;;;;;;5110657;28;20199;-48
2021/01/01 01:08:39;;;;;;;64.55;38.45;;;3.70;99.90;;;;;;5110763;28;20199;-51
2021/01/01 01:11:06;;;;;;;43.60;33.70;;;3.70;99.90;;;;;;5110838;28;20206;-48
2021/01/01 01:13:34;;;;;;;52.17;31.15;;;3.70;99.90;;;;;;5110708;28;20190;-52
2021/01/01 01:16:01;;;;;;;46.22;34.20;;;3.70;99.90;;;;;;5110562;28;20214;-51
2021/01/01 01:18:29;;;;;;;45.47;29.20;;;3.60;99.90;;;;;;5110676;28;20205;-51
2021/01/01 01:20:56;;;;;;;52.58;38.05;;;3.60;99.90;;;;;;5110828;28;20577;-51
2021/01/01 01:23:24;;;;;;;53.83;29.08;;;3.60;99.90;;;;;;5110912;28;20186;-48
2021/01/01 01:25:51;;;;;;;45.45;32.75;;;3.60;99.90;;;;;;5092095;28;20728;-46
2021/01/01 01:28:19;;;;;;;53.85;36.60;;;3.60;99.90;;;;;;5110992;28;20712;-46
2021/01/01 01:30:48;;;;;;;53.58;37.03;;;3.60;99.90;;;;;;5110522;28;20210;-50
2021/01/01 01:33:15;;;;;;;50.85;33.97;;;3.60;99.90;;;;;;5110739;28;20182;-48
2021/01/01 01:35:42;;;;;;;51.35;33.55;;;3.70;99.90;;;;;;5110697;28;20687;-47
2021/01/01 01:38:10;;;;;;;47.45;30.58;;;3.70;99.90;;;;;;5111366;28;20197;-47
2021/01/01 01:40:37;;;;;;;47.80;28.50;;;3.70;99.90;;;;;;5112245;28;20206;-51
2021/01/01 01:43:05;;;;;;;52.30;29.75;;;3.70;99.90;;;;;;5110006;28;20232;-50
2021/01/01 01:45:32;;;;;;;41.28;30.83;;;3.70;99.90;;;;;;5090355;28;20198;-53
2021/01/01 01:48:01;;;;;;;52.88;32.88;;;3.70;99.90;;;;;;5090771;28;20187;-49
2021/01/01 01:50:28;;;;;;;42.95;27.95;;;3.80;99.90;;;;;;5099301;28;20210;-49
2021/01/01 01:52:57;;;;;;;47.40;28.65;;;3.80;99.90;;;;;;5091392;28;20183;-54
2021/01/01 01:55:25;;;;;;;36.85;25.92;;;3.80;99.90;;;;;;5090820;28;20215;-45
2021/01/01 01:57:56;;;;;;;37.97;27.20;;;3.70;99.90;;;;;;5093590;28;20820;-49
2021/01/01 02:03:28;;;;;;;33.03;22.55;;;3.80;99.90;;;;;;5079853;28;20377;-44
2021/01/01 02:05:56;;;;;;;36.63;23.80;;;3.80;99.90;;;;;;5086279;28;20190;-50
2021/01/01 02:08:27;;;;;;;43.22;25.65;;;3.80;99.90;;;;;;5098849;28;20217;-46
2021/01/01 02:10:55;;;;;;;37.17;25.48;;;3.80;99.90;;;;;;5116543;28;20223;-53
2021/01/01 02:13:24;;;;;;;35.58;25.90;;;3.80;99.90;;;;;;5116172;28;20290;-52
2021/01/01 02:15:52;;;;;;;41.15;25.52;;;3.80;99.90;;;;;;5116807;28;20187;-53
2021/01/01 02:18:37;;;;;;;30.23;23.05;;;3.80;99.90;;;;;;5115470;28;20255;-51
2021/01/01 02:21:07;;;;;;;42.35;26.95;;;3.70;99.90;;;;;;5116420;28;20218;-50
2021/01/01 02:23:38;;;;;;;39.85;26.55;;;3.70;99.90;;;;;;5117557;28;20631;-46
2021/01/01 02:26:06;;;;;;;43.10;26.60;;;3.70;99.90;;;;;;5117335;28;20593;-56
2021/01/01 02:28:36;;;;;;;43.60;27.70;;;3.70;99.90;;;;;;5116717;28;20538;-47
2021/01/01 02:31:04;;;;;;;36.85;24.27;;;3.60;99.90;;;;;;5117229;28;20245;-54
2021/01/01 02:33:35;;;;;;;36.50;23.98;;;3.70;99.90;;;;;;5116510;28;20179;-50
2021/01/01 02:36:03;;;;;;;33.50;21.10;;;3.70;99.90;;;;;;5098638;28;20209;-46
2021/01/01 02:38:30;;;;;;;34.17;23.13;;;3.70;99.90;;;;;;5116127;28;20195;-51
2021/01/01 02:41:00;;;;;;;32.97;23.98;;;3.70;99.90;;;;;;5116199;28;20213;-51
2021/01/01 02:43:32;;;;;;;39.30;21.88;;;3.70;99.90;;;;;;5115758;28;20220;-50
2021/01/01 02:45:59;;;;;;;35.33;25.45;;;3.70;99.90;;;;;;5115062;28;20268;-52
2021/01/01 02:48:27;;;;;;;30.25;20.27;;;3.60;99.90;;;;;;5115350;28;20589;-52
2021/01/01 02:50:54;;;;;;;34.33;23.08;;;3.50;99.90;;;;;;5114438;28;20216;-51
2021/01/01 02:53:21;;;;;;;33.85;21.40;;;3.50;99.90;;;;;;5113797;28;20308;-45
2021/01/01 02:55:48;;;;;;;29.15;19.52;;;3.60;99.90;;;;;;5114507;28;20183;-49
2021/01/01 02:58:16;;;;;;;29.67;16.58;;;3.50;99.90;;;;;;5114084;28;20225;-48
2021/01/01 03:00:48;;;;;;;31.83;19.73;;;3.60;99.90;;;;;;5114042;28;20203;-50
2021/01/01 03:03:15;;;;;;;36.63;21.35;;;3.60;99.90;;;;;;5113811;28;20185;-49
2021/01/01 03:05:43;;;;;;;23.80;19.15;;;3.70;99.90;;;;;;5113691;28;20195;-49
2021/01/01 03:08:10;;;;;;;20.63;16.73;;;3.70;99.90;;;;;;5095328;28;20182;-50
2021/01/01 03:10:37;;;;;;;27.05;18.60;;;3.70;99.90;;;;;;5095256;28;20218;-50
2021/01/01 03:13:04;;;;;;;25.55;14.57;;;3.70;99.90;;;;;;5113344;28;20178;-50
2021/01/01 03:15:33;;;;;;;24.85;18.98;;;3.70;99.90;;;;;;5112919;28;20182;-55
2021/01/01 03:18:00;;;;;;;24.85;16.52;;;3.70;99.90;;;;;;5113275;28;20774;-51
2021/01/01 03:20:27;;;;;;;30.67;18.92;;;3.70;99.90;;;;;;5113554;28;20268;-48
2021/01/01 03:22:54;;;;;;;28.02;17.45;;;3.60;99.90;;;;;;5113461;28;20647;-54
2021/01/01 03:25:21;;;;;;;23.30;16.60;;;3.50;99.90;;;;;;5094912;28;20228;-44
2021/01/01 03:27:48;;;;;;;25.55;16.85;;;3.50;99.90;;;;;;5113232;28;20193;-52
2021/01/01 03:30:16;;;;;;;29.02;18.02;;;3.50;99.90;;;;;;5112917;28;20207;-46
2021/01/01 03:32:44;;;;;;;18.98;13.15;;;3.60;99.90;;;;;;5113129;28;20549;-51
2021/01/01 03:35:12;;;;;;;20.40;15.23;;;3.50;99.90;;;;;;5114051;28;20174;-52
2021/01/01 03:37:39;;;;;;;28.52;15.02;;;3.50;99.90;;;;;;5113436;28;20195;-51
2021/01/01 03:40:07;;;;;;;26.20;15.57;;;3.50;99.90;;;;;;5113400;28;20206;-48
2021/01/01 03:42:34;;;;;;;18.15;12.68;;;3.60;99.90;;;;;;5095099;28;20589;-48
2021/01/01 03:45:01;;;;;;;20.42;12.30;;;3.60;99.90;;;;;;5113404;28;20702;-50
2021/01/01 03:47:28;;;;;;;23.95;14.35;;;3.60;99.90;;;;;;5113604;28;20181;-53
2021/01/01 03:49:56;;;;;;;21.33;13.70;;;3.60;99.90;;;;;;5113161;28;20698;-52
2021/01/01 03:52:24;;;;;;;21.13;12.88;;;3.60;99.90;;;;;;5094675;28;20194;-49
2021/01/01 03:54:51;;;;;;;15.13;12.10;;;3.60;99.90;;;;;;5113036;28;20179;-48
2021/01/01 03:57:18;;;;;;;21.02;12.65;;;3.60;99.90;;;;;;5113009;28;20183;-51
2021/01/01 03:59:45;;;;;;;19.92;16.00;;;3.50;99.90;;;;;;5113245;28;20636;-51
2021/01/01 04:02:12;;;;;;;24.40;14.27;;;3.50;99.90;;;;;;5112850;28;20565;-51
2021/01/01 04:04:39;;;;;;;17.95;11.45;;;3.50;99.90;;;;;;5112854;28;20202;-48
2021/01/01 04:07:07;;;;;;;20.67;13.05;;;3.50;99.90;;;;;;5112685;28;20662;-52
2021/01/01 04:09:34;;;;;;;16.77;12.70;;;3.50;99.90;;;;;;5112742;28;20686;-56
2021/01/01 04:12:01;;;;;;;17.30;10.68;;;3.50;99.90;;;;;;5112465;28;20186;-52
2021/01/01 04:14:29;;;;;;;15.68;12.80;;;3.60;99.90;;;;;;5112567;28;20179;-53
2021/01/01 04:16:56;;;;;;;14.77;13.05;;;3.60;99.90;;;;;;5112632;28;20175;-53
2021/01/01 04:19:23;;;;;;;28.00;14.05;;;3.60;99.90;;;;;;5112436;28;20218;-51
2021/01/01 04:21:50;;;;;;;21.77;13.55;;;3.60;99.90;;;;;;5112167;28;20655;-50
2021/01/01 04:24:19;;;;;;;19.63;12.55;;;3.40;99.90;;;;;;5112289;28;20171;-47
2021/01/01 04:26:46;;;;;;;21.35;13.38;;;3.40;99.90;;;;;;5112352;28;20178;-48
2021/01/01 04:29:14;;;;;;;18.85;13.10;;;3.30;99.90;;;;;;5111525;28;20171;-50
2021/01/01 04:31:41;;;;;;;20.25;14.00;;;3.30;99.90;;;;;;5112240;28;20429;-50
2021/01/01 04:34:08;;;;;;;20.60;13.80;;;3.40;99.90;;;;;;5112231;28;20171;-52
2021/01/01 04:36:35;;;;;;;18.65;12.57;;;3.50;99.90;;;;;;5112168;28;20174;-51
2021/01/01 04:39:03;;;;;;;17.55;11.05;;;3.40;99.90;;;;;;5112699;28;20198;-48
2021/01/01 04:41:32;;;;;;;14.05;10.32;;;3.50;99.90;;;;;;5112189;28;20644;-51
2021/01/01 04:43:59;;;;;;;18.70;12.32;;;3.50;99.90;;;;;;5112203;28;20187;-52
2021/01/01 04:46:27;;;;;;;16.25;11.98;;;3.50;99.90;;;;;;5112112;28;20191;-52
2021/01/01 04:48:55;;;;;;;20.80;12.80;;;3.60;99.90;;;;;;5111942;28;20178;-52
2021/01/01 04:51:22;;;;;;;26.05;13.02;;;3.50;99.90;;;;;;5111939;28;20175;-49
2021/01/01 04:53:54;;;;;;;16.10;11.45;;;3.50;99.90;;;;;;5112029;28;20190;-55
2021/01/01 04:56:21;;;;;;;17.92;10.77;;;3.40;99.90;;;;;;5112440;28;20570;-51
2021/01/01 04:58:49;;;;;;;19.27;11.85;;;3.50;99.90;;;;;;5112537;28;20627;-54
2021/01/01 05:01:16;;;;;;;20.20;11.20;;;3.50;99.90;;;;;;5112405;28;20683;-49
2021/01/01 05:03:45;;;;;;;21.52;13.93;;;3.40;99.90;;;;;;5112667;28;20254;-54
2021/01/01 05:06:12;;;;;;;18.98;12.50;;;3.40;99.90;;;;;;5111806;28;20175;-49
2021/01/01 05:08:39;;;;;;;17.13;10.93;;;3.30;99.90;;;;;;5112789;28;20190;-55
2021/01/01 05:11:07;;;;;;;19.35;13.15;;;3.20;99.90;;;;;;5112374;28;20469;-52
2021/01/01 05:13:34;;;;;;;18.42;12.60;;;3.20;99.90;;;;;;5112318;28;20631;-53
2021/01/01 05:16:05;;;;;;;16.15;12.55;;;3.10;99.90;;;;;;5111799;28;20194;-50
2021/01/01 05:18:32;;;;;;;14.95;11.65;;;3.30;99.90;;;;;;5111625;28;20713;-49
2021/01/01 05:20:59;;;;;;;17.27;10.77;;;3.30;99.90;;;;;;5111601;28;20202;-51
2021/01/01 05:23:27;;;;;;;18.05;11.90;;;3.30;99.90;;;;;;5112159;28;20186;-53
2021/01/01 05:26:09;;;;;;;13.85;10.48;;;3.40;99.90;;;;;;5112183;28;20197;-54
2021/01/01 05:29:00;;;;;;;13.82;11.90;;;3.40;99.90;;;;;;5111906;28;20182;-50
2021/01/01 05:31:29;;;;;;;19.95;12.00;;;3.40;99.90;;;;;;5101619;28;20726;-50
2021/01/01 05:34:00;;;;;;;18.83;11.55;;;3.40;99.90;;;;;;5112098;28;20179;-53
2021/01/01 05:36:36;;;;;;;18.77;9.93;;;3.40;99.90;;;;;;5111682;28;20178;-51
2021/01/01 05:39:06;;;;;;;9.73;8.18;;;3.30;99.90;;;;;;5112954;28;20187;-55
2021/01/01 05:41:35;;;;;;;19.80;11.82;;;3.40;99.90;;;;;;5115834;28;20175;-52
2021/01/01 05:44:07;;;;;;;39.83;12.90;;;3.40;99.90;;;;;;5115886;28;20174;-56
2021/01/01 05:46:35;;;;;;;19.77;11.05;;;3.30;99.90;;;;;;5115807;28;20175;-51
2021/01/01 05:49:03;;;;;;;15.00;11.48;;;3.30;99.90;;;;;;5115746;28;20175;-53
2021/01/01 05:51:30;;;;;;;15.95;11.25;;;3.30;99.90;;;;;;5115871;28;20182;-51
2021/01/01 05:54:10;;;;;;;16.98;13.98;;;3.30;99.90;;;;;;5115596;28;20220;-55
2021/01/01 05:56:40;;;;;;;17.08;11.55;;;3.30;99.90;;;;;;5115742;28;20531;-54
2021/01/01 05:59:11;;;;;;;19.00;14.02;;;3.40;99.90;;;;;;5115536;28;20210;-51
2021/01/01 06:01:42;;;;;;;15.10;10.60;;;3.40;99.90;;;;;;5115287;28;20207;-53
2021/01/01 06:04:10;;;;;;;18.42;11.27;;;3.40;99.90;;;;;;5115543;28;20199;-50
2021/01/01 06:06:40;;;;;;;18.17;13.15;;;3.40;99.90;;;;;;5115437;28;20550;-54
2021/01/01 06:09:08;;;;;;;21.92;12.93;;;3.40;99.90;;;;;;5115264;28;20177;-55
2021/01/01 06:11:37;;;;;;;15.85;12.70;;;3.30;99.90;;;;;;5115345;28;20190;-54
2021/01/01 06:14:05;;;;;;;22.63;13.30;;;3.30;99.90;;;;;;5115516;28;20175;-55
2021/01/01 06:16:45;;;;;;;20.20;12.70;;;3.20;99.90;;;;;;5115475;28;20175;-51
2021/01/01 06:19:13;;;;;;;21.52;14.23;;;3.20;99.90;;;;;;5115307;28;20194;-55
2021/01/01 06:21:44;;;;;;;20.20;11.98;;;3.00;99.90;;;;;;5115360;28;20713;-52
2021/01/01 06:24:19;;;;;;;16.55;11.23;;;3.00;99.90;;;;;;5114893;28;20554;-56
2021/01/01 06:26:46;;;;;;;14.40;10.60;;;3.10;99.90;;;;;;5115221;28;20175;-52
2021/01/01 06:29:17;;;;;;;14.95;9.73;;;3.20;99.90;;;;;;5115559;28;20299;-51
2021/01/01 06:31:47;;;;;;;17.88;9.65;;;3.20;99.90;;;;;;5115296;28;20581;-50
2021/01/01 06:34:29;;;;;;;13.93;9.45;;;3.00;99.90;;;;;;5114987;28;20167;-53
2021/01/01 06:36:56;;;;;;;16.00;8.63;;;3.10;99.90;;;;;;5115210;28;20181;-53
2021/01/01 06:39:37;;;;;;;14.95;13.25;;;3.10;99.90;;;;;;5115000;28;20251;-54
2021/01/01 06:42:05;;;;;;;20.65;11.93;;;3.10;99.90;;;;;;5115189;28;20175;-53
2021/01/01 06:44:34;;;;;;;19.80;12.60;;;3.10;99.90;;;;;;5115319;28;20181;-50
2021/01/01 06:47:03;;;;;;;16.98;13.10;;;3.00;99.90;;;;;;5114767;28;20241;-50
2021/01/01 06:49:32;;;;;;;11.75;9.02;;;3.00;99.90;;;;;;5114401;28;20214;-48
2021/01/01 06:52:09;;;;;;;21.30;12.45;;;3.10;99.90;;;;;;5113555;28;20182;-53
2021/01/01 06:54:55;;;;;;;18.98;11.30;;;2.90;99.90;;;;;;5114322;28;20206;-45
2021/01/01 06:57:28;;;;;;;13.57;11.18;;;2.70;99.90;;;;;;5114645;28;20539;-49
2021/01/01 06:59:56;;;;;;;18.67;11.30;;;2.70;99.90;;;;;;5114284;28;20233;-51
2021/01/01 07:02:28;;;;;;;13.77;10.15;;;2.80;99.90;;;;;;5114225;28;20198;-51
2021/01/01 07:05:00;;;;;;;19.13;14.07;;;2.80;99.90;;;;;;5114118;28;20517;-49
2021/01/01 07:07:40;;;;;;;18.27;10.75;;;2.90;99.90;;;;;;5114201;28;20183;-51
2021/01/01 07:10:13;;;;;;;20.52;12.45;;;2.90;99.90;;;;;;5113983;28;20209;-54
2021/01/01 07:12:40;;;;;;;13.88;10.23;;;2.90;99.90;;;;;;5114358;28;20661;-54
2021/01/01 07:15:32;;;;;;;19.00;11.60;;;2.80;99.90;;;;;;5114251;28;20178;-54
2021/01/01 07:18:00;;;;;;;11.20;10.07;;;2.50;99.90;;;;;;5109707;28;20229;-55
2021/01/01 07:20:28;;;;;;;16.58;10.27;;;2.40;99.90;;;;;;5113960;28;20654;-51
2021/01/01 07:22:59;;;;;;;20.58;11.95;;;2.50;99.90;;;;;;5113819;28;20187;-51
2021/01/01 07:25:37;;;;;;;13.70;8.60;;;2.40;99.90;;;;;;5113963;28;20591;-54
2021/01/01 07:28:08;;;;;;;22.45;13.65;;;2.40;99.90;;;;;;5113832;28;20174;-52
2021/01/01 07:30:36;;;;;;;14.93;12.82;;;2.50;99.90;;;;;;5113668;28;20687;-55
2021/01/01 07:33:04;;;;;;;25.35;12.85;;;2.60;99.90;;;;;;5113907;28;20186;-50
2021/01/01 07:35:32;;;;;;;20.95;12.85;;;2.60;99.90;;;;;;5113595;28;20240;-46
2021/01/01 07:38:03;;;;;;;12.98;11.68;;;2.60;99.90;;;;;;5113835;28;20180;-48
2021/01/01 07:40:31;;;;;;;21.92;12.05;;;2.70;99.90;;;;;;5095293;28;20301;-49
2021/01/01 07:42:58;;;;;;;19.90;12.88;;;2.70;99.90;;;;;;5113533;28;20174;-53
2021/01/01 07:45:25;;;;;;;18.40;12.75;;;2.80;99.90;;;;;;5113655;28;20662;-53
2021/01/01 07:47:52;;;;;;;22.80;11.85;;;2.80;99.90;;;;;;5113868;28;20540;-52
2021/01/01 07:50:20;;;;;;;16.83;13.07;;;2.90;99.90;;;;;;5113509;28;20207;-52
2021/01/01 07:52:47;;;;;;;17.92;11.30;;;2.80;99.90;;;;;;5113589;28;20177;-51
2021/01/01 07:55:21;;;;;;;19.48;11.40;;;2.80;99.90;;;;;;5113417;28;20178;-49
2021/01/01 07:57:49;;;;;;;15.25;10.35;;;2.80;99.90;;;;;;5113353;28;20179;-49
2021/01/01 08:00:17;;;;;;;15.55;9.48;;;2.90;99.90;;;;;;5113325;28;20240;-50
2021/01/01 08:02:45;;;;;;;21.08;12.32;;;3.00;99.90;;;;;;5112940;28;20171;-49
2021/01/01 08:05:14;;;;;;;18.88;12.88;;;3.00;99.90;;;;;;5113017;28;20186;-49
2021/01/01 08:07:42;;;;;;;14.75;10.90;;;3.00;99.90;;;;;;5113033;28;20521;-51
2021/01/01 08:10:10;;;;;;;12.57;9.90;;;2.90;99.90;;;;;;5112909;28;20205;-53
2021/01/01 08:12:38;;;;;;;17.08;12.52;;;2.90;99.90;;;;;;5112877;28;20174;-53
2021/01/01 08:15:06;;;;;;;23.50;13.90;;;2.90;99.90;;;;;;5094778;28;20187;-53
2021/01/01 08:17:33;;;;;;;18.40;11.57;;;2.90;99.90;;;;;;5114199;22;20599;-54
2021/01/01 08:20:00;;;;;;;22.38;11.65;;;2.80;99.90;;;;;;5077324;28;20574;-55
2021/01/01 08:22:34;;;;;;;17.30;12.38;;;2.90;99.90;;;;;;5083287;28;20667;-50
2021/01/01 08:25:03;;;;;;;21.27;14.30;;;2.80;99.90;;;;;;5091900;28;20191;-56
2021/01/01 08:27:30;;;;;;;15.48;10.02;;;2.80;99.90;;;;;;5085476;28;20188;-53
2021/01/01 08:30:05;;;;;;;18.50;13.30;;;2.90;99.90;;;;;;5071484;28;20295;-54
2021/01/01 08:32:32;;;;;;;24.13;18.02;;;3.00;99.90;;;;;;5072072;28;20188;-52
2021/01/01 08:35:01;;;;;;;20.90;13.02;;;3.00;99.90;;;;;;5070676;28;20226;-49
2021/01/01 08:37:29;;;;;;;28.23;16.30;;;3.10;99.90;;;;;;5071476;28;20234;-51
2021/01/01 08:40:05;;;;;;;16.90;11.98;;;3.10;99.90;;;;;;5071990;28;20283;-55
2021/01/01 08:42:34;;;;;;;19.40;12.50;;;3.20;99.90;;;;;;5071789;28;20168;-51
2021/01/01 08:45:02;;;;;;;17.40;12.65;;;3.20;99.90;;;;;;5071377;28;20192;-52
2021/01/01 08:47:37;;;;;;;24.98;11.20;;;3.20;99.90;;;;;;5071528;28;20672;-55
2021/01/01 08:50:16;;;;;;;13.63;11.85;;;3.20;99.90;;;;;;5071331;28;20211;-53
2021/01/01 08:52:45;;;;;;;22.20;12.20;;;3.30;99.90;;;;;;5071052;28;20207;-53
2021/01/01 08:55:14;;;;;;;19.90;15.05;;;3.50;99.90;;;;;;5071117;28;20188;-50
2021/01/01 08:57:41;;;;;;;17.30;12.40;;;3.50;99.90;;;;;;5071360;28;20191;-53
2021/01/01 09:00:10;;;;;;;17.95;12.35;;;3.40;99.90;;;;;;5069545;28;20222;-55
2021/01/01 09:02:37;;;;;;;18.95;13.57;;;3.50;99.90;;;;;;5071421;28;20180;-53
2021/01/01 09:05:06;;;;;;;15.65;12.30;;;3.60;99.90;;;;;;5071017;28;20196;-54
2021/01/01 09:07:33;;;;;;;19.48;11.60;;;3.60;99.90;;;;;;5069930;28;20198;-51
2021/01/01 09:10:18;;;;;;;19.45;12.80;;;3.60;99.90;;;;;;5071472;28;20692;-55
2021/01/01 09:12:45;;;;;;;18.15;11.60;;;3.70;99.90;;;;;;5071247;28;20191;-49
2021/01/01 09:15:27;;;;;;;16.25;13.18;;;3.80;99.90;;;;;;5071032;28;20219;-51
2021/01/01 09:18:05;;;;;;;23.15;13.07;;;4.00;99.90;;;;;;5087689;28;20199;-49
2021/01/01 09:20:32;;;;;;;18.50;11.10;;;3.70;99.90;;;;;;5111987;28;20572;-51
2021/01/01 09:23:01;;;;;;;16.30;10.02;;;3.70;99.90;;;;;;5111681;28;20186;-51
2021/01/01 09:25:31;;;;;;;15.70;11.07;;;3.70;99.90;;;;;;5120703;28;20182;-54
2021/01/01 09:27:58;;;;;;;21.27;13.82;;;3.80;99.90;;;;;;5130484;28;20221;-52
2021/01/01 09:30:27;;;;;;;13.52;10.77;;;3.90;99.90;;;;;;5111247;28;20202;-54
2021/01/01 09:32:56;;;;;;;18.13;13.07;;;3.80;99.90;;;;;;5112257;28;20198;-50
2021/01/01 09:35:24;;;;;;;17.30;11.35;;;3.80;99.90;;;;;;5118470;28;20183;-53
2021/01/01 09:37:53;;;;;;;23.05;12.63;;;3.90;99.90;;;;;;5111814;28;20256;-52
2021/01/01 09:40:25;;;;;;;15.77;11.23;;;3.80;99.90;;;;;;5111070;28;20261;-53
2021/01/01 09:42:57;;;;;;;16.90;10.32;;;3.80;99.90;;;;;;5111652;28;20682;-53
2021/01/01 09:45:24;;;;;;;18.63;10.57;;;3.80;99.90;;;;;;5093097;28;20280;-51
2021/01/01 09:47:51;;;;;;;18.48;10.93;;;3.80;99.90;;;;;;5111164;28;20197;-50
2021/01/01 09:50:18;;;;;;;28.60;12.85;;;3.60;99.90;;;;;;5112751;28;20198;-50
2021/01/01 09:52:46;;;;;;;20.55;11.05;;;3.60;99.90;;;;;;5131989;28;20190;-50
2021/01/01 09:55:13;;;;;;;18.25;11.10;;;3.60;99.90;;;;;;5132357;28;20235;-53
2021/01/01 09:57:41;;;;;;;14.50;9.95;;;3.60;99.90;;;;;;5132678;28;20170;-50
2021/01/01 10:00:12;;;;;;;17.30;11.38;;;3.60;99.90;;;;;;5132663;28;20224;-53
2021/01/01 10:02:39;;;;;;;24.80;13.88;;;3.60;99.90;;;;;;5134248;28;20594;-50
2021/01/01 10:05:08;;;;;;;20.42;11.88;;;3.60;99.90;;;;;;5135323;28;20409;-52
2021/01/01 10:07:35;;;;;;;16.98;10.13;;;3.60;99.90;;;;;;5135853;28;20197;-56
2021/01/01 10:10:03;;;;;;;12.35;10.15;;;3.70;99.90;;;;;;5134812;28;20213;-52
2021/01/01 10:12:30;;;;;;;19.10;12.02;;;3.80;99.90;;;;;;5133508;28;20190;-53
2021/01/01 10:14:59;;;;;;;21.88;12.85;;;3.60;99.90;;;;;;5134085;28;20186;-58
2021/01/01 10:17:28;;;;;;;19.05;12.95;;;3.60;99.90;;;;;;5109168;28;20275;-54
2021/01/01 10:19:56;;;;;;;22.48;12.95;;;3.50;99.90;;;;;;5128619;27;20531;-52
2021/01/01 10:22:24;;;;;;;15.93;11.02;;;3.60;99.90;;;;;;5124014;28;20191;-52
2021/01/01 10:24:51;;;;;;;16.70;11.48;;;3.60;99.90;;;;;;5123342;28;20191;-52
2021/01/01 10:27:18;;;;;;;22.77;10.88;;;3.60;99.90;;;;;;5120402;27;20190;-50
2021/01/01 10:29:46;;;;;;;10.52;7.93;;;3.60;99.90;;;;;;5131668;27;20213;-52
2021/01/01 10:32:14;;;;;;;16.33;12.15;;;3.60;99.90;;;;;;5130881;27;20185;-54
2021/01/01 10:34:44;;;;;;;18.52;13.38;;;3.70;99.90;;;;;;5157164;27;20617;-55
2021/01/01 10:37:11;;;;;;;13.93;10.63;;;3.70;99.90;;;;;;5157153;27;20617;-53
2021/01/01 10:39:38;;;;;;;26.60;14.95;;;3.70;99.90;;;;;;5156026;27;20228;-54
2021/01/01 10:42:05;;;;;;;25.10;12.55;;;3.80;99.90;;;;;;5156573;27;20193;-53
2021/01/01 10:44:35;;;;;;;22.13;14.05;;;3.80;99.90;;;;;;5156700;27;20272;-52
2021/01/01 10:47:02;;;;;;;21.70;12.57;;;3.80;99.90;;;;;;5156296;27;20181;-52
2021/01/01 10:49:30;;;;;;;21.75;13.18;;;3.80;99.90;;;;;;5156280;27;20580;-57
2021/01/01 10:51:58;;;;;;;18.88;10.45;;;3.70;99.90;;;;;;5156122;27;20268;-53
2021/01/01 10:54:28;;;;;;;24.20;14.82;;;3.70;99.90;;;;;;5152207;27;20260;-52
2021/01/01 10:56:55;;;;;;;18.40;11.95;;;3.60;99.90;;;;;;5124092;27;20174;-52
2021/01/01 10:59:24;;;;;;;16.95;10.77;;;3.70;99.90;;;;;;5128496;27;20221;-52
2021/01/01 11:01:55;;;;;;;17.73;13.10;;;3.70;99.90;;;;;;5116400;27;20671;-50
2021/01/01 11:04:22;;;;;;;19.35;13.43;;;3.70;99.90;;;;;;5124535;27;20181;-50
2021/01/01 11:06:49;;;;;;;18.70;12.00;;;3.70;99.90;;;;;;5135032;27;20664;-56
2021/01/01 11:09:17;;;;;;;24.98;13.75;;;3.70;99.90;;;;;;5135025;27;20178;-52
2021/01/01 11:11:46;;;;;;;25.17;15.23;;;3.80;99.90;;;;;;5134828;27;20179;-54
2021/01/01 11:14:18;;;;;;;23.70;14.38;;;3.80;99.90;;;;;;5134911;27;20186;-55
2021/01/01 12:21:14;;;;;;;20.33;13.07;;;4.10;99.90;;;;;;5138366;27;20476;-52
2021/01/01 12:23:45;;;;;;;18.15;11.70;;;4.20;99.90;;;;;;5129974;27;20665;-54
2021/01/01 12:26:13;;;;;;;14.07;9.48;;;4.20;99.90;;;;;;5133752;27;20217;-53
2021/01/01 12:29:01;;;;;;;12.90;8.93;;;4.20;99.90;;;;;;5135756;27;20177;-53
2021/01/01 12:31:30;;;;;;;17.60;12.20;;;4.10;99.90;;;;;;5134965;27;20193;-54
2021/01/01 12:33:58;;;;;;;19.38;12.38;;;4.10;99.90;;;;;;5133677;27;20185;-51
2021/01/01 12:36:25;;;;;;;21.70;13.18;;;4.20;99.90;;;;;;5133519;27;20277;-55
2021/01/01 12:38:52;;;;;;;23.83;12.73;;;4.20;99.90;;;;;;5118947;27;20190;-55
2021/01/01 12:41:19;;;;;;;18.23;11.90;;;4.20;99.90;;;;;;5137286;27;20292;-54
2021/01/01 12:43:47;;;;;;;19.13;13.25;;;4.20;99.90;;;;;;5137909;27;20197;-55
2021/01/01 12:46:15;;;;;;;15.95;9.80;;;4.30;99.90;;;;;;5137162;27;20583;-55
2021/01/01 12:48:43;;;;;;;18.75;10.15;;;4.30;99.90;;;;;;5136190;27;20553;-57
2021/01/01 12:51:10;;;;;;;18.90;10.25;;;4.40;99.90;;;;;;5136993;27;20568;-50
2021/01/01 12:53:39;;;;;;;16.13;10.23;;;4.40;99.90;;;;;;5137023;27;20634;-52
2021/01/01 12:56:07;;;;;;;18.13;10.65;;;4.40;99.90;;;;;;5136717;27;20573;-52
2021/01/01 12:58:34;;;;;;;13.68;9.35;;;4.40;99.90;;;;;;5136589;27;20174;-54
2021/01/01 13:01:01;;;;;;;14.48;9.68;;;4.40;99.90;;;;;;5136432;27;20608;-53
2021/01/01 13:03:29;;;;;;;15.55;9.85;;;4.40;99.90;;;;;;5136975;27;20170;-54
2021/01/01 13:05:57;;;;;;;13.40;9.88;;;4.30;99.90;;;;;;5136590;27;20214;-52
2021/01/01 13:08:24;;;;;;;15.30;9.25;;;4.20;99.90;;;;;;5137030;27;20186;-51
2021/01/01 13:10:51;;;;;;;21.55;13.00;;;4.30;99.90;;;;;;5136347;27;20193;-53
2021/01/01 13:13:18;;;;;;;14.55;9.85;;;4.30;99.90;;;;;;5136112;27;20208;-53
2021/01/01 13:15:45;;;;;;;19.35;10.43;;;4.40;99.90;;;;;;5117334;28;20196;-53
2021/01/01 13:18:12;;;;;;;12.20;8.52;;;4.40;99.90;;;;;;5135837;28;20200;-50
2021/01/01 13:20:41;;;;;;;12.35;9.93;;;4.40;99.90;;;;;;5117398;28;20222;-52
2021/01/01 13:23:09;;;;;;;16.27;8.77;;;4.30;99.90;;;;;;5124816;22;20180;-58
2021/01/01 13:25:37;;;;;;;13.55;9.63;;;4.30;99.90;;;;;;5139808;28;20194;-57
2021/01/01 13:28:05;;;;;;;18.90;12.18;;;4.20;99.90;;;;;;5139014;28;20180;-56
2021/01/01 13:30:32;;;;;;;13.52;8.85;;;4.10;99.90;;;;;;5136168;28;20205;-54
2021/01/01 13:32:59;;;;;;;16.42;9.70;;;4.20;99.90;;;;;;5135588;28;20192;-55
2021/01/01 13:35:27;;;;;;;13.65;9.07;;;4.20;99.90;;;;;;5136035;28;20273;-52
2021/01/01 13:37:55;;;;;;;18.60;11.20;;;4.20;99.90;;;;;;5135921;28;20198;-52
2021/01/01 13:40:25;;;;;;;14.93;11.70;;;4.20;99.90;;;;;;5135497;28;20220;-58
2021/01/01 13:42:52;;;;;;;17.90;12.23;;;4.10;99.90;;;;;;5135777;28;20185;-52
2021/01/01 13:45:19;;;;;;;13.35;8.75;;;4.10;99.90;;;;;;5135360;28;20185;-55
2021/01/01 13:47:47;;;;;;;18.33;11.20;;;4.10;99.90;;;;;;5136001;28;20235;-52
2021/01/01 13:50:14;;;;;;;15.55;10.32;;;4.10;99.90;;;;;;5134957;28;20198;-54
2021/01/01 13:52:41;;;;;;;14.07;9.57;;;4.10;99.90;;;;;;5136333;28;20182;-56
2021/01/01 13:55:09;;;;;;;20.38;11.25;;;4.00;99.90;;;;;;5134660;28;20190;-56